Time;durP1;ratioP1;P1;durP2;ratioP2;P2;SDS_P1;SDS_P2;PMS_P1;PMS_P2;Temp;Humidity;BMP_temperature;BMP_pressure;BME280_temperature;BME280_humidity;BME280_pressure;Samples;Min_cycle;Max_cycle;Signal;HPM_P1;HPM_P2
2022/03/16 00:01:27;;;;;;;2.43;2.27;;;7.50;99.90;;;;;;5085890;28;20254;-51
2022/03/16 00:04:11;;;;;;;3.03;2.03;;;7.50;99.90;;;;;;5089502;28;20200;-59
2022/03/16 00:06:55;;;;;;;1.80;1.53;;;7.50;99.90;;;;;;5089603;28;20199;-59
2022/03/16 00:09:40;;;;;;;2.23;1.83;;;7.50;99.90;;;;;;5085311;28;20203;-55
2022/03/16 00:12:24;;;;;;;2.20;1.77;;;7.50;99.90;;;;;;5090306;28;20199;-48
2022/03/16 00:15:08;;;;;;;2.30;2.10;;;7.40;99.90;;;;;;5087674;28;20246;-51
2022/03/16 00:17:52;;;;;;;4.43;2.73;;;7.50;99.90;;;;;;5086250;28;20218;-55
2022/03/16 00:20:37;;;;;;;3.57;2.30;;;7.50;99.90;;;;;;5090309;28;20196;-50
2022/03/16 00:23:21;;;;;;;4.33;2.70;;;7.60;99.90;;;;;;5086803;28;20196;-53
2022/03/16 00:26:05;;;;;;;2.60;2.37;;;7.50;99.90;;;;;;5087738;28;20192;-47
2022/03/16 00:28:50;;;;;;;3.37;2.53;;;7.50;99.90;;;;;;5089751;28;20297;-51
2022/03/16 00:31:34;;;;;;;3.17;2.63;;;7.50;99.90;;;;;;5085711;28;20195;-49
2022/03/16 00:34:19;;;;;;;6.27;3.60;;;7.40;99.90;;;;;;5089929;28;20274;-57
2022/03/16 00:37:04;;;;;;;3.73;2.40;;;7.30;99.90;;;;;;5089479;28;20200;-55
2022/03/16 00:39:48;;;;;;;3.23;2.43;;;7.30;99.90;;;;;;5085373;28;20232;-52
2022/03/16 00:42:33;;;;;;;3.60;2.57;;;7.30;99.90;;;;;;5089431;28;20193;-50
2022/03/16 00:45:17;;;;;;;9.90;3.70;;;7.30;99.90;;;;;;5087452;28;20232;-63
2022/03/16 00:48:01;;;;;;;4.20;2.60;;;7.30;99.90;;;;;;5086490;28;20192;-48
2022/03/16 00:50:45;;;;;;;5.13;3.67;;;7.30;99.90;;;;;;5090239;28;20199;-57
2022/03/16 00:53:34;;;;;;;4.53;3.27;;;7.30;99.90;;;;;;5084919;28;20274;-53
2022/03/16 00:56:19;;;;;;;6.47;3.90;;;7.30;99.90;;;;;;5087472;28;20208;-52
2022/03/16 00:59:03;;;;;;;8.30;4.40;;;7.20;99.90;;;;;;5089533;28;20192;-60
2022/03/16 01:01:48;;;;;;;3.93;3.43;;;7.20;99.90;;;;;;5085756;28;20185;-52
2022/03/16 01:04:32;;;;;;;4.60;3.03;;;7.20;99.90;;;;;;5089721;28;20207;-55
2022/03/16 01:07:16;;;;;;;3.87;3.37;;;7.20;99.90;;;;;;5089341;28;20239;-61
2022/03/16 01:10:00;;;;;;;4.80;3.70;;;7.20;99.90;;;;;;5085228;28;20338;-49
2022/03/16 01:12:44;;;;;;;4.13;3.27;;;7.20;99.90;;;;;;5089635;28;20195;-53
2022/03/16 01:15:29;;;;;;;4.93;3.37;;;7.20;99.90;;;;;;5087324;28;20273;-62
2022/03/16 01:18:15;;;;;;;7.60;4.47;;;7.20;99.90;;;;;;5087248;28;20200;-51
2022/03/16 01:20:59;;;;;;;6.00;3.87;;;7.20;99.90;;;;;;5090029;28;20196;-53
2022/03/16 01:23:44;;;;;;;4.53;3.37;;;7.20;99.90;;;;;;5085956;28;20191;-59
2022/03/16 01:26:28;;;;;;;5.00;3.60;;;7.20;99.90;;;;;;5088379;28;20203;-62
2022/03/16 01:29:12;;;;;;;5.53;2.67;;;7.20;99.90;;;;;;5089731;28;20212;-55
2022/03/16 01:31:57;;;;;;;4.07;3.60;;;7.20;99.90;;;;;;5085533;28;20207;-53
2022/03/16 01:34:41;;;;;;;4.43;3.87;;;7.20;99.90;;;;;;5089105;28;20249;-49
2022/03/16 01:37:25;;;;;;;5.77;3.77;;;7.30;99.90;;;;;;5088901;28;20215;-57
2022/03/16 01:40:10;;;;;;;3.57;2.87;;;7.20;99.90;;;;;;5085438;28;20228;-53
2022/03/16 01:42:54;;;;;;;5.43;3.50;;;7.20;99.90;;;;;;5089452;28;20274;-48
2022/03/16 01:45:48;;;;;;;5.23;3.63;;;7.20;99.90;;;;;;5087025;28;20246;-53
2022/03/16 01:48:32;;;;;;;5.43;3.90;;;7.10;99.90;;;;;;5085776;28;20275;-47
2022/03/16 01:51:17;;;;;;;6.33;3.40;;;7.20;99.90;;;;;;5090432;28;20196;-55
2022/03/16 01:54:02;;;;;;;5.40;4.30;;;7.20;99.90;;;;;;5086226;28;20277;-60
2022/03/16 01:56:47;;;;;;;5.43;3.57;;;7.10;99.90;;;;;;5087454;28;20241;-57
2022/03/16 01:59:31;;;;;;;3.67;3.27;;;7.20;99.90;;;;;;5089536;28;20340;-59
2022/03/16 02:02:16;;;;;;;3.90;3.43;;;7.20;99.90;;;;;;5085151;28;20238;-52
2022/03/16 02:05:01;;;;;;;3.93;3.27;;;7.20;99.90;;;;;;5091467;28;20192;-52
2022/03/16 02:07:45;;;;;;;4.77;3.37;;;7.20;99.90;;;;;;5092320;28;20192;-54
2022/03/16 02:10:30;;;;;;;3.80;2.80;;;7.20;99.90;;;;;;5088923;28;20187;-53
2022/03/16 02:13:15;;;;;;;5.50;4.00;;;7.20;99.90;;;;;;5092915;28;20312;-50
2022/03/16 02:15:59;;;;;;;5.60;3.43;;;7.10;99.90;;;;;;5090741;28;20216;-53
2022/03/16 02:18:44;;;;;;;4.00;3.33;;;7.10;99.90;;;;;;5089517;28;20243;-53
2022/03/16 02:21:30;;;;;;;4.47;3.03;;;7.00;99.90;;;;;;5094037;28;20189;-56
2022/03/16 02:24:16;;;;;;;5.37;3.70;;;7.10;99.90;;;;;;5089622;28;20207;-58
2022/03/16 02:27:00;;;;;;;4.10;2.77;;;7.00;99.90;;;;;;5091011;28;20251;-51
2022/03/16 02:29:44;;;;;;;5.40;2.77;;;6.90;99.90;;;;;;5093198;28;20279;-51
2022/03/16 02:32:29;;;;;;;5.37;3.03;;;6.90;99.90;;;;;;5088516;28;20200;-49
2022/03/16 02:35:14;;;;;;;3.80;2.67;;;6.70;99.90;;;;;;5092344;28;20315;-59
2022/03/16 02:38:03;;;;;;;6.23;3.97;;;6.60;99.90;;;;;;5091969;28;20234;-55
2022/03/16 02:40:48;;;;;;;4.30;2.87;;;6.50;99.90;;;;;;5087736;28;20231;-54
2022/03/16 02:43:32;;;;;;;4.57;3.27;;;6.40;99.90;;;;;;5092546;28;20228;-55
2022/03/16 02:46:17;;;;;;;4.70;3.33;;;6.40;99.90;;;;;;5090959;28;20212;-57
2022/03/16 02:49:01;;;;;;;2.53;2.03;;;6.30;99.90;;;;;;5088528;28;20196;-58
2022/03/16 02:51:45;;;;;;;4.73;3.57;;;6.30;99.90;;;;;;5092668;28;20192;-52
2022/03/16 02:54:30;;;;;;;3.67;2.50;;;6.30;99.90;;;;;;5088291;28;20224;-60
2022/03/16 02:57:16;;;;;;;2.70;2.50;;;6.40;99.90;;;;;;5090060;28;20260;-57
2022/03/16 03:00:00;;;;;;;3.77;3.00;;;6.40;99.90;;;;;;5092450;28;20192;-50
2022/03/16 03:02:45;;;;;;;4.00;2.47;;;6.40;99.90;;;;;;5088426;28;20285;-55
2022/03/16 03:05:30;;;;;;;3.77;2.63;;;6.40;99.90;;;;;;5090986;28;20257;-52
2022/03/16 03:08:15;;;;;;;2.27;2.07;;;6.40;99.90;;;;;;5091341;28;20189;-55
2022/03/16 03:11:00;;;;;;;3.43;2.43;;;6.40;99.90;;;;;;5088012;28;20234;-51
2022/03/16 03:13:45;;;;;;;3.20;2.37;;;6.40;99.90;;;;;;5092075;28;20199;-61
2022/03/16 03:16:29;;;;;;;2.43;1.93;;;6.40;99.90;;;;;;5088921;28;20203;-63
2022/03/16 03:19:13;;;;;;;1.80;1.60;;;6.40;99.90;;;;;;5087790;28;20204;-54
2022/03/16 03:21:57;;;;;;;3.83;2.67;;;6.30;99.90;;;;;;5092557;28;20208;-53
2022/03/16 03:24:44;;;;;;;3.43;2.40;;;6.30;99.90;;;;;;5088417;28;20226;-62
2022/03/16 03:27:30;;;;;;;2.17;2.03;;;6.40;99.90;;;;;;5089717;28;20283;-57
2022/03/16 03:30:15;;;;;;;3.20;2.90;;;6.50;99.90;;;;;;5091599;28;20207;-50
2022/03/16 03:32:59;;;;;;;1.90;1.80;;;6.50;99.90;;;;;;5087832;28;20200;-63
2022/03/16 03:35:44;;;;;;;2.67;2.40;;;6.40;99.90;;;;;;5090771;28;20231;-52
2022/03/16 03:38:28;;;;;;;3.07;2.23;;;6.50;99.90;;;;;;5091035;28;20192;-60
2022/03/16 03:41:12;;;;;;;2.90;2.30;;;6.40;99.90;;;;;;5087030;28;20219;-55
2022/03/16 03:43:56;;;;;;;2.37;2.17;;;6.50;99.90;;;;;;5091223;28;20191;-52
2022/03/16 03:46:42;;;;;;;1.70;1.60;;;6.50;99.90;;;;;;5088855;28;20254;-60
2022/03/16 03:49:26;;;;;;;2.27;2.07;;;6.40;99.90;;;;;;5087630;28;21358;-57
2022/03/16 03:52:11;;;;;;;3.40;1.73;;;6.40;99.90;;;;;;5091366;28;20187;-55
2022/03/16 03:54:55;;;;;;;3.67;2.47;;;6.50;99.90;;;;;;5087378;28;20281;-56
2022/03/16 03:57:41;;;;;;;2.20;1.97;;;6.40;99.90;;;;;;5088831;28;20262;-54
2022/03/16 04:00:26;;;;;;;3.70;1.53;;;6.50;99.90;;;;;;5091243;28;20234;-52
2022/03/16 04:03:11;;;;;;;3.13;2.13;;;6.50;99.90;;;;;;5086974;28;20246;-51
2022/03/16 04:05:55;;;;;;;4.87;2.03;;;6.40;99.90;;;;;;5090294;28;20260;-58
2022/03/16 04:08:39;;;;;;;2.17;1.97;;;6.50;99.90;;;;;;5090444;28;20242;-59
2022/03/16 04:11:23;;;;;;;2.90;1.83;;;6.50;99.90;;;;;;5086809;28;20324;-52
2022/03/16 04:14:08;;;;;;;3.23;2.07;;;6.50;99.90;;;;;;5090656;28;20247;-56
2022/03/16 04:16:52;;;;;;;1.60;1.50;;;6.50;99.90;;;;;;5089432;28;20187;-62
2022/03/16 04:19:37;;;;;;;2.23;2.13;;;6.50;99.90;;;;;;5087874;28;20378;-52
2022/03/16 04:22:21;;;;;;;2.20;1.60;;;6.40;99.90;;;;;;5091005;28;20275;-55
2022/03/16 04:25:06;;;;;;;2.20;2.00;;;6.50;99.90;;;;;;5073969;28;20192;-62
2022/03/16 04:27:51;;;;;;;3.90;2.20;;;6.50;99.90;;;;;;5080340;28;20250;-53
2022/03/16 04:30:35;;;;;;;2.40;1.93;;;6.50;99.90;;;;;;5075717;28;20203;-53
2022/03/16 04:33:19;;;;;;;2.40;2.20;;;6.50;99.90;;;;;;5069787;28;20197;-62
2022/03/16 04:36:04;;;;;;;2.00;1.70;;;6.50;99.90;;;;;;5077898;28;20220;-61
2022/03/16 04:38:50;;;;;;;3.43;2.00;;;6.50;99.90;;;;;;5078396;28;20224;-62
2022/03/16 04:41:34;;;;;;;3.70;2.37;;;6.50;99.90;;;;;;5077519;28;20220;-60
2022/03/16 04:44:18;;;;;;;1.97;1.77;;;6.40;99.90;;;;;;5076560;28;20184;-58
2022/03/16 04:47:03;;;;;;;3.70;2.33;;;6.40;99.90;;;;;;5075427;28;20192;-62
2022/03/16 04:49:48;;;;;;;9.17;5.93;;;6.40;99.90;;;;;;5075873;28;20270;-51
2022/03/16 04:52:32;;;;;;;3.90;1.70;;;6.50;99.90;;;;;;5074932;28;20238;-55
2022/03/16 04:55:17;;;;;;;2.43;2.23;;;6.50;99.90;;;;;;5063867;28;20270;-58
2022/03/16 04:58:12;;;;;;;1.67;1.40;;;6.60;99.90;;;;;;5067058;28;20254;-59
2022/03/16 05:00:57;;;;;;;1.50;1.40;;;6.80;99.90;;;;;;5053954;28;20200;-48
2022/03/16 05:03:41;;;;;;;8.17;2.77;;;6.90;99.90;;;;;;5058511;28;20208;-60
2022/03/16 05:06:26;;;;;;;5.63;3.60;;;6.90;99.90;;;;;;5064139;28;20277;-59
2022/03/16 05:09:10;;;;;;;2.90;1.73;;;6.90;99.90;;;;;;5065914;28;20196;-55
2022/03/16 05:11:56;;;;;;;2.30;2.10;;;6.90;99.90;;;;;;5059839;28;20307;-51
2022/03/16 05:14:40;;;;;;;2.53;2.30;;;6.90;99.90;;;;;;5065971;28;20308;-58
2022/03/16 05:17:25;;;;;;;1.80;1.70;;;7.00;99.90;;;;;;5065252;28;20192;-53
2022/03/16 05:20:11;;;;;;;2.77;1.80;;;6.90;99.90;;;;;;5061518;28;20195;-54
2022/03/16 05:22:56;;;;;;;3.83;1.73;;;7.00;99.90;;;;;;5064390;28;20228;-58
2022/03/16 05:25:41;;;;;;;5.03;3.30;;;7.00;99.90;;;;;;5061884;28;20220;-50
2022/03/16 05:28:26;;;;;;;5.03;2.30;;;6.90;99.90;;;;;;5063853;28;20196;-55
2022/03/16 05:31:10;;;;;;;3.30;2.77;;;7.00;99.90;;;;;;5066181;28;20212;-58
2022/03/16 05:33:55;;;;;;;4.00;2.67;;;7.10;99.90;;;;;;5061109;28;20316;-54
2022/03/16 05:36:39;;;;;;;2.80;2.27;;;6.90;99.90;;;;;;5056579;28;20234;-53
2022/03/16 05:39:23;;;;;;;2.13;2.03;;;6.70;99.90;;;;;;5070658;28;20312;-57
2022/03/16 05:42:08;;;;;;;2.03;1.93;;;6.70;99.90;;;;;;5059817;28;20211;-52
2022/03/16 05:44:54;;;;;;;2.83;1.67;;;6.60;99.90;;;;;;5073879;28;20196;-59
2022/03/16 05:47:39;;;;;;;3.37;2.40;;;6.70;99.90;;;;;;5069081;28;20253;-56
2022/03/16 05:50:28;;;;;;;2.33;1.90;;;6.70;99.90;;;;;;5076752;28;20241;-50
2022/03/16 05:53:14;;;;;;;2.63;2.40;;;6.70;99.90;;;;;;5083027;28;20275;-53
2022/03/16 05:55:58;;;;;;;3.30;2.53;;;6.70;99.90;;;;;;5073245;28;20235;-56
2022/03/16 05:58:44;;;;;;;3.03;1.93;;;6.70;99.90;;;;;;5072873;28;20201;-55
2022/03/16 06:01:29;;;;;;;5.47;2.60;;;6.80;99.90;;;;;;5073910;28;20204;-56
2022/03/16 06:04:13;;;;;;;4.53;2.33;;;6.70;99.90;;;;;;5069499;28;20195;-59
2022/03/16 06:06:57;;;;;;;4.53;2.50;;;6.60;99.90;;;;;;5072488;28;20557;-53
2022/03/16 06:09:41;;;;;;;2.93;2.43;;;6.60;99.90;;;;;;5072640;28;20220;-54
2022/03/16 06:12:26;;;;;;;4.03;2.40;;;6.60;99.90;;;;;;5069802;28;20201;-49
2022/03/16 06:15:10;;;;;;;2.50;2.30;;;6.60;99.90;;;;;;5073750;28;20239;-59
2022/03/16 06:17:57;;;;;;;1.70;1.60;;;6.60;99.90;;;;;;5071580;28;20196;-60
2022/03/16 06:20:41;;;;;;;3.10;2.63;;;6.60;99.90;;;;;;5070452;28;20239;-53
2022/03/16 06:23:27;;;;;;;4.10;2.07;;;6.70;99.90;;;;;;5073807;28;20189;-53
2022/03/16 06:26:12;;;;;;;3.80;2.37;;;6.70;99.90;;;;;;5070251;28;20232;-49
2022/03/16 06:28:57;;;;;;;3.63;2.50;;;6.70;99.90;;;;;;5070925;28;20232;-46
2022/03/16 06:31:41;;;;;;;3.67;2.30;;;6.60;99.90;;;;;;5073585;28;20200;-49
2022/03/16 06:34:26;;;;;;;2.73;2.37;;;6.70;99.90;;;;;;5068570;28;20243;-55
2022/03/16 06:37:10;;;;;;;5.03;1.93;;;6.70;99.90;;;;;;5071794;28;20193;-50
2022/03/16 06:39:54;;;;;;;3.67;2.77;;;6.80;99.90;;;;;;5072614;28;20237;-54
2022/03/16 06:42:54;;;;;;;2.20;2.03;;;6.80;99.90;;;;;;5068566;28;20192;-56
2022/03/16 06:45:39;;;;;;;3.67;2.37;;;6.80;99.90;;;;;;5072684;28;20362;-53
2022/03/16 06:48:24;;;;;;;4.70;3.13;;;6.70;99.90;;;;;;5071884;28;20224;-56
2022/03/16 06:51:09;;;;;;;3.53;2.73;;;6.80;99.90;;;;;;5067776;28;20236;-52
2022/03/16 06:53:53;;;;;;;1.73;1.50;;;6.70;99.90;;;;;;5072967;28;20211;-56
2022/03/16 06:56:38;;;;;;;3.23;2.90;;;6.80;99.90;;;;;;5070491;28;20246;-52
2022/03/16 06:59:23;;;;;;;1.93;1.83;;;6.90;99.90;;;;;;5069655;28;20208;-50
2022/03/16 07:02:08;;;;;;;3.87;2.77;;;6.90;99.90;;;;;;5073037;28;20209;-59
2022/03/16 07:04:53;;;;;;;3.07;2.30;;;7.00;99.90;;;;;;5069160;28;20227;-52
2022/03/16 07:07:37;;;;;;;3.37;2.60;;;6.90;99.90;;;;;;5070275;28;20240;-55
2022/03/16 07:10:21;;;;;;;2.63;2.37;;;7.00;99.90;;;;;;5072260;28;20327;-56
2022/03/16 07:13:07;;;;;;;2.63;2.00;;;7.10;99.90;;;;;;5068609;28;20242;-58
2022/03/16 07:15:51;;;;;;;4.13;2.60;;;7.20;99.90;;;;;;5072692;28;20232;-50
2022/03/16 07:18:36;;;;;;;3.53;2.60;;;7.20;99.90;;;;;;5072350;28;20200;-61
2022/03/16 07:21:20;;;;;;;3.57;2.20;;;7.20;99.90;;;;;;5068438;28;20228;-50
2022/03/16 07:24:05;;;;;;;4.37;2.80;;;7.20;99.90;;;;;;5072219;28;20228;-51
2022/03/16 07:26:49;;;;;;;3.00;2.47;;;7.20;99.90;;;;;;5069628;28;20215;-58
2022/03/16 07:29:33;;;;;;;2.47;2.17;;;7.20;99.90;;;;;;5068583;28;20231;-49
2022/03/16 07:32:18;;;;;;;2.07;1.97;;;7.30;99.90;;;;;;5072563;28;20189;-57
2022/03/16 07:35:03;;;;;;;3.03;2.70;;;7.30;99.90;;;;;;5067672;28;20244;-50
2022/03/16 07:37:47;;;;;;;5.27;2.27;;;7.30;99.90;;;;;;5070829;28;20250;-58
2022/03/16 07:40:33;;;;;;;2.80;2.43;;;7.40;99.90;;;;;;5071897;28;20278;-51
2022/03/16 07:43:18;;;;;;;4.07;3.20;;;7.40;99.90;;;;;;5067137;28;20482;-54
2022/03/16 07:46:03;;;;;;;4.50;2.93;;;7.40;99.90;;;;;;5071759;28;20204;-51
2022/03/16 07:48:47;;;;;;;3.80;2.63;;;7.50;99.90;;;;;;5070799;28;20215;-61
2022/03/16 07:51:31;;;;;;;3.57;2.70;;;7.60;99.90;;;;;;5068054;28;20201;-54
2022/03/16 07:54:16;;;;;;;3.00;2.67;;;7.80;99.90;;;;;;5071601;28;20227;-54
2022/03/16 07:57:00;;;;;;;5.10;3.30;;;7.90;99.90;;;;;;5068713;28;20196;-48
2022/03/16 07:59:44;;;;;;;3.37;2.30;;;7.70;99.90;;;;;;5068235;28;20228;-52
2022/03/16 08:02:29;;;;;;;3.23;2.93;;;7.90;99.90;;;;;;5071590;28;20189;-50
2022/03/16 08:05:15;;;;;;;2.90;2.53;;;7.90;99.90;;;;;;5066997;28;20184;-59
2022/03/16 08:07:59;;;;;;;4.40;2.27;;;8.00;99.90;;;;;;5070002;28;20245;-55
2022/03/16 08:10:44;;;;;;;6.10;2.63;;;8.10;99.90;;;;;;5071430;28;20197;-56
2022/03/16 08:13:28;;;;;;;4.80;2.70;;;8.20;99.90;;;;;;5067638;28;20215;-55
2022/03/16 08:16:13;;;;;;;3.33;2.77;;;8.30;99.90;;;;;;5071086;28;20263;-56
2022/03/16 08:18:57;;;;;;;4.90;2.83;;;8.30;99.90;;;;;;5070855;28;20277;-56
2022/03/16 08:21:41;;;;;;;4.23;3.00;;;8.60;99.90;;;;;;5067711;28;20196;-56
2022/03/16 08:24:26;;;;;;;4.87;2.77;;;8.50;99.90;;;;;;5071235;28;20249;-54
2022/03/16 08:27:10;;;;;;;4.83;3.37;;;8.70;99.90;;;;;;5068005;28;20242;-56
2022/03/16 08:29:55;;;;;;;5.33;2.70;;;8.80;99.90;;;;;;5067894;28;20189;-58
2022/03/16 08:32:40;;;;;;;3.70;2.93;;;8.70;99.90;;;;;;5071199;28;20193;-50
2022/03/16 08:35:24;;;;;;;3.23;2.83;;;8.90;99.90;;;;;;5066694;28;20229;-60
2022/03/16 08:38:09;;;;;;;4.53;2.83;;;9.10;99.90;;;;;;5069726;28;20200;-49
2022/03/16 08:40:54;;;;;;;4.03;3.23;;;9.60;99.90;;;;;;5070617;28;20208;-61
2022/03/16 08:43:38;;;;;;;4.87;3.03;;;9.70;99.90;;;;;;5067364;28;20268;-58
2022/03/16 08:46:23;;;;;;;5.30;3.67;;;10.00;99.90;;;;;;5070542;28;20221;-51
2022/03/16 08:49:07;;;;;;;6.90;4.43;;;10.20;99.90;;;;;;5070126;28;20334;-52
2022/03/16 08:51:52;;;;;;;5.57;4.37;;;10.20;99.90;;;;;;5067143;28;20204;-48
2022/03/16 08:54:37;;;;;;;5.03;3.83;;;10.20;99.90;;;;;;5070345;28;20318;-55
2022/03/16 08:57:22;;;;;;;5.50;3.20;;;10.20;99.90;;;;;;5067949;28;20222;-52
2022/03/16 09:00:08;;;;;;;5.50;3.30;;;10.30;99.90;;;;;;5067600;28;20212;-56
2022/03/16 09:02:53;;;;;;;4.07;3.43;;;10.40;99.90;;;;;;5070515;28;20196;-57
2022/03/16 09:05:37;;;;;;;5.00;3.83;;;10.90;99.90;;;;;;5066331;28;20231;-56
2022/03/16 09:08:21;;;;;;;5.00;3.50;;;10.90;99.90;;;;;;5069004;28;20272;-55
2022/03/16 09:11:05;;;;;;;4.20;3.50;;;11.00;99.90;;;;;;5070414;28;20209;-55
2022/03/16 09:13:49;;;;;;;4.07;3.27;;;11.20;99.90;;;;;;5066908;28;20199;-51
2022/03/16 09:16:34;;;;;;;4.90;3.83;;;11.60;99.90;;;;;;5074487;28;20216;-53
2022/03/16 09:19:21;;;;;;;6.97;4.30;;;11.70;99.90;;;;;;5073470;28;20188;-48
2022/03/16 09:22:06;;;;;;;6.00;3.97;;;12.00;99.90;;;;;;5071017;28;20212;-49
2022/03/16 09:24:50;;;;;;;6.93;4.10;;;12.00;99.90;;;;;;5074518;28;20192;-56
2022/03/16 09:27:35;;;;;;;6.97;4.40;;;11.90;99.90;;;;;;5071697;28;20212;-57
2022/03/16 09:30:22;;;;;;;5.07;4.07;;;12.00;99.90;;;;;;5071635;28;20208;-51
2022/03/16 09:33:07;;;;;;;7.17;5.27;;;12.30;99.90;;;;;;5075047;28;20207;-59
2022/03/16 09:35:52;;;;;;;6.87;4.10;;;12.10;99.90;;;;;;5070058;28;20221;-54
2022/03/16 09:38:36;;;;;;;5.67;3.90;;;12.00;99.90;;;;;;5072574;28;20225;-49
2022/03/16 09:41:21;;;;;;;4.83;4.00;;;11.90;99.90;;;;;;5074093;28;20200;-59
2022/03/16 09:44:06;;;;;;;5.47;4.10;;;12.00;99.90;;;;;;5069538;28;20200;-61
2022/03/16 09:46:54;;;;;;;4.93;3.93;;;12.00;99.90;;;;;;5074178;28;20244;-54
2022/03/16 09:49:38;;;;;;;11.03;5.63;;;12.10;99.90;;;;;;5073036;28;20279;-63
2022/03/16 09:52:24;;;;;;;5.23;4.20;;;12.70;99.90;;;;;;5070111;28;20274;-60
2022/03/16 09:55:08;;;;;;;7.90;5.30;;;12.60;99.90;;;;;;5073927;28;20229;-53
2022/03/16 09:57:52;;;;;;;7.73;4.97;;;12.50;99.90;;;;;;5071469;28;20197;-57
2022/03/16 10:00:38;;;;;;;7.00;4.97;;;12.50;99.90;;;;;;5071212;28;20193;-50
2022/03/16 10:03:28;;;;;;;7.70;4.57;;;12.70;99.90;;;;;;5074254;28;20185;-48
2022/03/16 10:06:14;;;;;;;6.43;4.83;;;12.50;99.90;;;;;;5069997;28;20193;-57
2022/03/16 10:15:32;;;;;;;10.80;6.57;;;12.30;99.90;;;;;;5087980;28;20250;-52
2022/03/16 10:18:23;;;;;;;6.47;4.80;;;12.70;99.90;;;;;;5069358;28;20312;-57
2022/03/16 10:21:07;;;;;;;6.27;4.63;;;12.60;99.90;;;;;;5073838;28;20284;-49
2022/03/16 10:23:58;;;;;;;8.20;5.30;;;13.10;99.90;;;;;;5070881;28;20295;-57
2022/03/16 10:26:51;;;;;;;7.10;5.03;;;13.80;99.90;;;;;;5069014;28;20214;-55
2022/03/16 10:29:36;;;;;;;7.93;5.40;;;14.30;99.90;;;;;;5073388;28;20211;-50
2022/03/16 10:32:22;;;;;;;7.80;5.43;;;15.70;99.90;;;;;;5070235;28;20277;-58
2022/03/16 10:35:07;;;;;;;10.43;6.10;;;15.10;99.90;;;;;;5070403;28;20221;-55
2022/03/16 10:37:52;;;;;;;9.97;5.70;;;14.60;99.90;;;;;;5073189;28;20231;-50
2022/03/16 10:40:37;;;;;;;10.47;6.60;;;15.00;99.90;;;;;;5069015;28;20233;-48
2022/03/16 10:46:34;;;;;;;9.20;6.10;;;14.90;99.90;;;;;;5088975;28;20201;-52
2022/03/16 10:49:22;;;;;;;8.97;5.90;;;13.90;99.90;;;;;;5068844;28;20250;-49
2022/03/16 10:52:14;;;;;;;9.43;6.00;;;13.90;99.90;;;;;;5072260;28;20189;-45
2022/03/16 10:55:02;;;;;;;7.20;5.40;;;14.00;99.90;;;;;;5073385;28;20217;-49
2022/03/16 10:57:49;;;;;;;7.17;4.80;;;13.90;99.90;;;;;;5069315;28;20200;-55
2022/03/16 11:00:35;;;;;;;7.47;5.53;;;14.00;99.90;;;;;;5072555;28;20191;-55
2022/03/16 11:03:22;;;;;;;9.27;5.20;;;14.30;99.90;;;;;;5073057;28;20197;-57
2022/03/16 11:06:08;;;;;;;9.73;5.93;;;14.90;99.90;;;;;;5068350;28;20235;-47
2022/03/16 11:08:54;;;;;;;12.70;6.63;;;15.60;99.90;;;;;;5072482;28;20188;-52
2022/03/16 11:14:44;;;;;;;7.05;5.32;;;17.20;97.10;;;;;;5083213;28;20278;-51
2022/03/16 11:17:29;;;;;;;9.20;6.57;;;17.50;96.30;;;;;;5073110;28;20208;-50
2022/03/16 11:20:14;;;;;;;8.95;5.38;;;17.80;96.30;;;;;;5070618;28;20192;-50
2022/03/16 11:26:12;;;;;;;10.40;6.32;;;17.50;94.70;;;;;;5087766;28;20192;-52
2022/03/16 11:29:00;;;;;;;8.68;5.82;;;17.40;95.70;;;;;;5071083;28;20277;-49
2022/03/16 11:31:44;;;;;;;8.77;5.63;;;17.30;94.90;;;;;;5067904;28;20243;-48
2022/03/16 11:34:28;;;;;;;8.75;6.05;;;18.20;93.90;;;;;;5072281;28;20287;-51
2022/03/16 11:37:14;;;;;;;7.57;5.85;;;18.30;93.50;;;;;;5069221;28;20632;-56
2022/03/16 11:40:38;;;;;;;8.10;5.53;;;18.00;92.80;;;;;;5069062;28;20236;-53
2022/03/16 11:43:25;;;;;;;9.70;6.18;;;17.60;92.80;;;;;;5071812;28;20196;-50
2022/03/16 11:46:28;;;;;;;9.15;6.32;;;18.80;92.30;;;;;;5070475;28;20193;-60
2022/03/16 11:49:12;;;;;;;7.68;5.22;;;18.00;93.00;;;;;;5067753;28;20192;-56
2022/03/16 11:52:02;;;;;;;7.93;5.80;;;18.10;93.20;;;;;;5072186;28;20210;-51
2022/03/16 11:54:49;;;;;;;7.43;6.07;;;18.40;92.40;;;;;;5069904;28;20320;-62
2022/03/16 11:57:51;;;;;;;9.77;5.85;;;18.60;91.00;;;;;;5067416;28;20219;-60
2022/03/16 12:00:38;;;;;;;7.97;5.68;;;18.10;91.50;;;;;;5071434;28;20216;-54
2022/03/16 12:03:24;;;;;;;9.88;5.75;;;18.20;91.70;;;;;;5069895;28;20200;-62
2022/03/16 12:06:08;;;;;;;9.40;6.00;;;17.50;92.50;;;;;;5067352;28;20204;-49
2022/03/16 12:08:58;;;;;;;9.02;6.15;;;17.10;93.00;;;;;;5071184;28;20212;-51
2022/03/16 12:15:37;;;;;;;6.50;5.07;;;16.70;93.80;;;;;;5083331;28;20222;-60
2022/03/16 12:18:24;;;;;;;9.50;5.93;;;15.70;94.50;;;;;;5070194;28;20288;-49
2022/03/16 12:21:10;;;;;;;10.07;6.47;;;15.70;94.90;;;;;;5071334;28;20201;-51
2022/03/16 12:23:59;;;;;;;8.23;5.57;;;15.70;95.30;;;;;;5066673;28;20202;-52
2022/03/16 12:28:55;;;;;;;8.83;5.90;;;15.30;95.40;;;;;;5071359;28;20197;-57
2022/03/16 12:29:49;;;;;;;8.00;5.13;;;15.80;95.10;;;;;;5086590;28;20208;-49
2022/03/16 12:32:36;;;;;;;9.37;5.93;;;15.30;95.30;;;;;;5067160;28;20263;-51
2022/03/16 12:35:21;;;;;;;8.10;5.47;;;15.30;95.90;;;;;;5070289;28;20239;-53
2022/03/16 12:38:09;;;;;;;9.47;5.43;;;15.80;95.50;;;;;;5070099;28;20193;-53
2022/03/16 12:44:03;;;;;;;7.03;5.80;;;16.10;94.70;;;;;;5086327;28;20223;-49
2022/03/16 12:47:02;;;;;;;6.47;5.10;;;15.60;95.10;;;;;;5069808;28;20287;-48
2022/03/16 12:49:46;;;;;;;10.10;6.53;;;15.90;94.50;;;;;;5065881;28;20290;-51
2022/03/16 12:52:30;;;;;;;9.10;5.80;;;15.60;95.00;;;;;;5071333;28;20270;-47
2022/03/16 12:55:17;;;;;;;10.07;5.80;;;15.10;95.40;;;;;;5069199;28;20250;-60
2022/03/16 12:58:02;;;;;;;8.20;5.70;;;15.50;95.20;;;;;;5066405;28;20213;-48
2022/03/16 13:00:57;;;;;;;7.93;5.23;;;15.20;95.20;;;;;;5070936;28;20195;-51
2022/03/16 13:03:42;;;;;;;7.50;5.63;;;15.40;95.30;;;;;;5069100;28;20215;-58
2022/03/16 13:06:34;;;;;;;10.97;5.90;;;16.10;94.70;;;;;;5066890;28;20188;-46
2022/03/16 13:09:19;;;;;;;8.90;5.17;;;16.50;94.00;;;;;;5070748;28;20265;-58
2022/03/16 13:12:10;;;;;;;12.40;6.57;;;16.40;94.10;;;;;;5067106;28;20189;-59
2022/03/16 13:14:57;;;;;;;8.47;5.77;;;16.30;93.70;;;;;;5067730;28;20319;-51
2022/03/16 13:17:41;;;;;;;7.83;5.53;;;16.10;93.90;;;;;;5070639;28;20315;-48
2022/03/16 13:20:27;;;;;;;10.20;6.30;;;16.20;94.20;;;;;;5066865;28;20227;-50
2022/03/16 13:23:12;;;;;;;8.27;5.53;;;16.10;94.70;;;;;;5069762;28;20258;-51
2022/03/16 13:26:12;;;;;;;9.40;6.10;;;16.30;94.00;;;;;;5070753;28;20281;-48
2022/03/16 13:28:58;;;;;;;8.87;6.60;;;16.60;93.60;;;;;;5066228;28;20223;-52
2022/03/16 13:31:44;;;;;;;9.67;6.27;;;16.40;93.10;;;;;;5069625;28;20243;-48
2022/03/16 13:34:29;;;;;;;8.70;5.50;;;16.20;93.60;;;;;;5070065;28;20322;-58
2022/03/16 13:37:22;;;;;;;11.30;6.53;;;16.70;93.30;;;;;;5065771;28;20189;-56
2022/03/16 13:40:09;;;;;;;8.83;5.63;;;15.90;93.60;;;;;;5070193;28;20229;-60
2022/03/16 13:46:40;;;;;;;7.87;5.70;;;15.90;93.70;;;;;;5082435;28;20263;-61
2022/03/16 13:49:37;;;;;;;12.43;7.03;;;17.20;93.30;;;;;;5067226;28;20276;-50
2022/03/16 13:52:34;;;;;;;7.95;5.53;;;18.90;90.10;;;;;;5070524;28;20189;-56
2022/03/16 13:55:20;;;;;;;11.57;6.07;;;20.70;88.40;;;;;;5066682;28;20225;-62
2022/03/16 13:58:09;;;;;;;6.50;5.30;;;20.40;86.30;;;;;;5067394;28;20200;-57
2022/03/16 14:00:55;;;;;;;8.90;5.88;;;19.10;86.80;;;;;;5072346;28;20189;-54
2022/03/16 14:03:39;;;;;;;6.57;5.75;;;17.80;90.00;;;;;;5069579;28;20232;-56
2022/03/16 14:06:24;;;;;;;7.78;5.55;;;18.20;90.30;;;;;;5072045;28;20201;-51
2022/03/16 14:09:26;;;;;;;10.00;6.82;;;19.20;87.50;;;;;;5073586;28;20201;-47
2022/03/16 14:12:14;;;;;;;6.75;5.88;;;20.50;85.80;;;;;;5069986;28;20189;-60
2022/03/16 14:15:10;;;;;;;8.90;5.93;;;21.60;83.20;;;;;;5072567;28;20281;-50
2022/03/16 14:17:58;;;;;;;7.78;5.78;;;22.60;81.60;;;;;;5073800;28;20200;-60
2022/03/16 14:20:51;;;;;;;7.90;6.50;;;24.00;77.60;;;;;;5068886;28;20284;-55
2022/03/16 14:23:37;;;;;;;7.88;5.68;;;23.10;74.60;;;;;;5072586;28;20208;-52
2022/03/16 14:26:21;;;;;;;9.15;6.15;;;23.60;76.00;;;;;;5073519;28;20243;-53
2022/03/16 14:29:05;;;;;;;6.68;5.82;;;23.40;75.00;;;;;;5069161;28;20189;-58
2022/03/16 14:31:50;;;;;;;7.30;5.95;;;22.60;74.60;;;;;;5073743;28;20233;-55
2022/03/16 14:34:34;;;;;;;7.00;6.10;;;21.20;76.70;;;;;;5072203;28;20185;-61
2022/03/16 14:37:18;;;;;;;9.15;6.68;;;20.60;78.90;;;;;;5069099;28;20219;-59
2022/03/16 14:40:03;;;;;;;8.55;6.72;;;21.40;77.90;;;;;;5073213;28;20224;-59
2022/03/16 14:42:49;;;;;;;9.23;6.47;;;21.20;77.20;;;;;;5069717;28;20196;-47
2022/03/16 14:45:34;;;;;;;9.70;6.15;;;21.30;77.90;;;;;;5070158;28;20201;-60
2022/03/16 14:48:18;;;;;;;7.60;6.70;;;22.00;77.60;;;;;;5073172;28;20193;-53
2022/03/16 14:51:03;;;;;;;7.35;6.50;;;22.80;75.40;;;;;;5068933;28;20194;-58
2022/03/16 14:53:47;;;;;;;9.77;7.00;;;23.00;74.60;;;;;;5072167;28;20197;-54
2022/03/16 14:56:31;;;;;;;8.10;6.00;;;22.40;72.70;;;;;;5072399;28;20212;-52